Time;durP1;ratioP1;P1;durP2;ratioP2;P2;SDS_P1;SDS_P2;PMS_P1;PMS_P2;Temp;Humidity;BMP_temperature;BMP_pressure;BME280_temperature;BME280_humidity;BME280_pressure;Samples;Min_cycle;Max_cycle;Signal;HPM_P1;HPM_P2
2021/01/13 00:00:25;;;;;;;29.32;16.37;;;;;;;-1.41;85.50;99843.15;1760013;80;21183;-85
2021/01/13 00:02:54;;;;;;;24.37;14.40;;;;;;;-1.33;85.52;99841.92;1787296;79;21183;-84
2021/01/13 00:05:21;;;;;;;29.98;15.75;;;;;;;-1.28;85.44;99835.30;1787211;80;21598;-85
2021/01/13 00:07:52;;;;;;;26.45;15.95;;;;;;;-1.19;85.50;99842.70;1785034;79;22050;-85
2021/01/13 00:10:19;;;;;;;26.40;15.00;;;;;;;-1.10;85.51;99836.77;1741691;82;21168;-86
2021/01/13 00:12:46;;;;;;;26.95;15.48;;;;;;;-1.02;85.50;99838.08;1746485;82;21183;-86
2021/01/13 00:15:13;;;;;;;25.37;14.98;;;;;;;-0.93;85.46;99839.00;1814672;79;21607;-85
2021/01/13 00:17:43;;;;;;;28.30;16.57;;;;;;;-0.83;85.52;99833.53;1814736;79;21594;-86
2021/01/13 00:20:11;;;;;;;26.87;17.40;;;;;;;-0.76;85.39;99835.19;1786191;77;21889;-85
2021/01/13 00:22:38;;;;;;;26.20;15.93;;;;;;;-0.69;85.30;99834.72;1814720;79;21136;-84
2021/01/13 00:25:06;;;;;;;26.07;14.45;;;;;;;-0.64;85.30;99839.72;1814780;77;21133;-86
2021/01/13 00:27:34;;;;;;;23.60;13.40;;;;;;;-0.55;85.40;99833.76;1814766;79;21521;-86
2021/01/13 00:30:01;;;;;;;22.48;12.82;;;;;;;-0.44;85.42;99838.23;1814802;79;21540;-86
2021/01/13 00:32:33;;;;;;;23.52;13.60;;;;;;;-0.36;85.37;99833.47;1814812;77;21881;-87
2021/01/13 00:35:00;;;;;;;23.67;13.25;;;;;;;-0.29;85.30;99834.28;1814827;79;21137;-86
2021/01/13 00:37:28;;;;;;;22.27;12.73;;;;;;;-0.25;85.24;99830.64;1814860;79;21152;-86
2021/01/13 00:39:54;;;;;;;21.25;12.58;;;;;;;-0.15;85.24;99836.30;1814729;78;21133;-86
2021/01/13 00:42:21;;;;;;;19.65;12.33;;;;;;;-0.10;85.15;99842.61;1814971;79;21145;-86
2021/01/13 00:44:49;;;;;;;21.12;11.97;;;;;;;-0.07;85.16;99839.78;1814895;79;22785;-87
2021/01/13 00:47:15;;;;;;;19.57;12.58;;;;;;;-0.01;85.16;99838.80;1814740;79;21211;-86
2021/01/13 00:49:43;;;;;;;21.80;11.53;;;;;;;0.05;85.13;99834.36;1814788;79;21216;-85
2021/01/13 00:52:10;;;;;;;19.45;11.20;;;;;;;0.09;85.10;99838.88;1814694;79;21150;-86
2021/01/13 00:54:37;;;;;;;16.77;10.23;;;;;;;0.14;85.16;99838.72;1814817;79;21180;-87
2021/01/13 00:57:05;;;;;;;15.55;9.30;;;;;;;0.21;85.22;99829.59;1814478;77;21874;-83
2021/01/13 00:59:32;;;;;;;15.50;7.83;;;;;;;0.29;85.28;99827.38;1814467;78;21212;-83
2021/01/13 01:01:59;;;;;;;14.90;8.70;;;;;;;0.34;85.21;99825.93;1814588;77;21073;-83
2021/01/13 01:04:27;;;;;;;10.58;7.05;;;;;;;0.38;85.21;99836.91;1814583;79;21153;-83
2021/01/13 01:06:54;;;;;;;10.55;6.42;;;;;;;0.42;85.25;99831.49;1814756;79;21156;-82
2021/01/13 01:09:22;;;;;;;9.30;6.40;;;;;;;0.47;85.28;99827.41;1816422;78;21873;-83
2021/01/13 01:11:50;;;;;;;11.97;6.80;;;;;;;0.49;85.10;99836.14;1799880;79;21307;-83
2021/01/13 01:14:17;;;;;;;11.25;7.20;;;;;;;0.43;84.83;99834.13;1785290;80;21235;-83
2021/01/13 01:16:44;;;;;;;9.65;6.42;;;;;;;0.28;84.44;99836.86;1799850;79;21736;-82
2021/01/13 01:19:11;;;;;;;11.45;5.80;;;;;;;0.14;84.39;99840.42;1785084;79;21187;-82
2021/01/13 01:21:44;;;;;;;11.80;6.47;;;;;;;0.01;84.40;99841.89;1799756;79;21820;-84
2021/01/13 01:24:11;;;;;;;9.23;6.05;;;;;;;-0.10;84.42;99847.38;1785542;80;21168;-83
2021/01/13 01:26:49;;;;;;;15.15;6.30;;;;;;;-0.20;84.39;99843.83;1799674;79;21571;-82
2021/01/13 01:29:16;;;;;;;8.33;5.20;;;;;;;-0.32;84.46;99849.25;1784874;79;21195;-81
2021/01/13 01:31:50;;;;;;;7.70;4.47;;;;;;;-0.42;84.53;99849.13;1799755;79;21269;-81
2021/01/13 01:34:17;;;;;;;8.03;4.90;;;;;;;-0.51;84.73;99852.50;1784376;80;21911;-82
2021/01/13 01:36:44;;;;;;;9.85;5.45;;;;;;;-0.56;84.91;99859.52;1799670;79;21643;-82
2021/01/13 01:39:12;;;;;;;12.40;5.35;;;;;;;-0.63;85.05;99847.97;1785212;80;21239;-82
2021/01/13 01:41:44;;;;;;;6.92;5.08;;;;;;;-0.68;85.12;99854.58;1799864;79;21189;-82
2021/01/13 01:44:11;;;;;;;7.92;6.00;;;;;;;-0.72;85.25;99857.39;1785313;80;21227;-81
2021/01/13 01:46:40;;;;;;;10.60;5.80;;;;;;;-0.75;85.30;99854.66;1800004;79;21891;-85
2021/01/13 01:49:07;;;;;;;12.13;5.95;;;;;;;-0.79;85.33;99859.14;1785195;79;21152;-84
2021/01/13 01:51:48;;;;;;;8.85;5.33;;;;;;;-0.83;85.33;99852.02;1780936;80;21148;-85
2021/01/13 01:54:24;;;;;;;11.28;6.45;;;;;;;-0.85;85.44;99854.52;1798508;79;21603;-84
2021/01/13 01:56:54;;;;;;;9.18;5.62;;;;;;;-0.85;85.50;99860.09;1782322;80;21132;-84
2021/01/13 01:59:46;;;;;;;11.75;6.33;;;;;;;-0.85;85.51;99863.97;1800161;79;22145;-87
2021/01/13 02:02:13;;;;;;;9.48;5.50;;;;;;;-0.86;85.48;99867.38;1784588;79;21609;-85
2021/01/13 02:04:43;;;;;;;11.38;5.67;;;;;;;-0.89;85.45;99865.49;1800332;79;21144;-85
2021/01/13 02:07:31;;;;;;;8.93;5.10;;;;;;;-0.92;85.39;99866.63;1785668;80;21135;-85
2021/01/13 02:09:59;;;;;;;8.30;5.30;;;;;;;-0.95;85.34;99875.48;1800081;79;21101;-81
2021/01/13 02:12:30;;;;;;;9.30;5.70;;;;;;;-0.99;85.33;99872.25;1785318;80;21935;-83
2021/01/13 02:14:59;;;;;;;8.40;4.95;;;;;;;-1.04;85.25;99871.97;1783937;79;21168;-82
2021/01/13 02:17:34;;;;;;;8.73;4.83;;;;;;;-1.10;85.17;99870.34;1800158;79;21161;-83
2021/01/13 02:20:15;;;;;;;10.30;5.05;;;;;;;-1.12;85.26;99867.19;1785343;79;21205;-82
2021/01/13 02:22:58;;;;;;;10.53;5.60;;;;;;;-1.18;85.13;99866.44;1799913;79;21133;-82
2021/01/13 02:26:02;;;;;;;8.83;5.17;;;;;;;-1.22;85.19;99865.38;1785572;80;21884;-81
2021/01/13 02:28:29;;;;;;;8.38;4.62;;;;;;;-1.27;85.41;99862.03;1799950;79;21666;-81
2021/01/13 02:31:28;;;;;;;7.65;4.72;;;;;;;-1.35;85.16;99867.14;1752682;80;21088;-87
2021/01/13 02:34:00;;;;;;;7.80;4.50;;;;;;;-1.42;85.17;99864.62;1800493;79;21136;-88
2021/01/13 02:36:54;;;;;;;10.38;4.65;;;;;;;-1.49;85.20;99858.60;1786010;80;21144;-86
2021/01/13 02:39:21;;;;;;;9.13;5.65;;;;;;;-1.55;85.28;99855.26;1799426;79;21598;-85
2021/01/13 02:41:48;;;;;;;7.17;4.33;;;;;;;-1.58;85.37;99855.07;1785194;79;21176;-80
2021/01/13 02:44:15;;;;;;;7.53;5.28;;;;;;;-1.62;85.42;99859.16;1799898;79;21180;-83
2021/01/13 02:47:03;;;;;;;10.10;5.25;;;;;;;-1.64;85.44;99850.44;1785258;79;21671;-82
2021/01/13 02:49:38;;;;;;;10.13;4.42;;;;;;;-1.64;85.48;99853.43;1798565;79;21250;-83
2021/01/13 02:52:19;;;;;;;8.45;5.10;;;;;;;-1.66;85.47;99857.20;1785360;80;21959;-87
2021/01/13 02:54:57;;;;;;;9.10;5.33;;;;;;;-1.68;85.50;99857.52;1800434;79;21164;-87
2021/01/13 02:57:28;;;;;;;8.58;5.40;;;;;;;-1.71;85.49;99861.19;1756760;80;21175;-85
2021/01/13 02:59:59;;;;;;;12.15;5.03;;;;;;;-1.70;85.47;99855.66;1800514;79;21149;-86
2021/01/13 03:02:37;;;;;;;7.35;4.90;;;;;;;-1.74;85.43;99864.90;1757723;80;21167;-91
2021/01/13 03:05:06;;;;;;;7.75;4.72;;;;;;;-1.79;85.36;99861.14;1784020;80;22106;-85
2021/01/13 03:07:37;;;;;;;7.40;4.72;;;;;;;-1.84;85.47;99868.62;1800177;79;21120;-85
2021/01/13 03:10:12;;;;;;;6.83;4.30;;;;;;;-1.88;85.41;99875.66;1785402;80;21594;-82
2021/01/13 03:12:40;;;;;;;7.58;4.53;;;;;;;-1.92;85.38;99871.13;1799141;79;21311;-82
2021/01/13 03:15:08;;;;;;;9.23;5.10;;;;;;;-1.94;85.43;99877.00;1785469;79;21215;-84
2021/01/13 03:18:00;;;;;;;8.60;4.42;;;;;;;-1.98;85.49;99874.62;1800063;79;21897;-85
2021/01/13 03:21:00;;;;;;;6.22;4.15;;;;;;;-1.99;85.58;99875.03;1784638;79;21179;-83
2021/01/13 03:23:59;;;;;;;7.75;4.40;;;;;;;-2.00;85.66;99873.65;1799780;79;22224;-83
2021/01/13 03:26:31;;;;;;;12.33;5.28;;;;;;;-2.02;85.78;99885.56;1785317;80;21226;-83
2021/01/13 03:28:58;;;;;;;10.08;4.53;;;;;;;-2.03;85.91;99876.91;1799810;79;21176;-85
2021/01/13 03:31:27;;;;;;;9.18;4.47;;;;;;;-2.01;86.02;99880.50;1785170;80;21888;-81
2021/01/13 03:34:29;;;;;;;7.78;4.60;;;;;;;-2.01;86.13;99881.80;1799738;79;21583;-81
2021/01/13 03:37:19;;;;;;;6.03;4.08;;;;;;;-2.00;86.25;99882.67;1785578;80;21100;-88
2021/01/13 03:39:47;;;;;;;7.42;4.10;;;;;;;-2.00;86.41;99886.14;1799557;79;21685;-82
2021/01/13 03:42:16;;;;;;;6.60;4.42;;;;;;;-1.96;86.60;99885.52;1785304;80;22328;-86
2021/01/13 03:44:45;;;;;;;7.75;4.62;;;;;;;-1.94;86.63;99884.33;1799977;79;21786;-87
2021/01/13 03:47:42;;;;;;;8.00;5.00;;;;;;;-1.89;86.70;99889.78;1785719;80;21135;-89
2021/01/13 03:50:26;;;;;;;8.33;4.62;;;;;;;-1.89;86.65;99884.22;1800311;79;21125;-87
2021/01/13 03:53:01;;;;;;;7.72;4.60;;;;;;;-1.88;86.61;99897.59;1785656;80;21276;-88
2021/01/13 03:55:31;;;;;;;6.97;5.20;;;;;;;-1.88;86.57;99897.59;1800458;79;21109;-88
2021/01/13 03:58:14;;;;;;;7.67;5.58;;;;;;;-1.87;86.52;99903.25;1785832;79;22053;-88
2021/01/13 04:01:04;;;;;;;17.90;11.28;;;;;;;-1.88;86.44;99899.28;1800300;79;21407;-87
2021/01/13 04:03:55;;;;;;;14.15;7.70;;;;;;;-1.89;86.50;99899.69;1782648;79;21163;-87
2021/01/13 04:06:24;;;;;;;36.28;19.87;;;;;;;-1.89;86.57;99894.53;1785632;80;21136;-87
2021/01/13 04:08:51;;;;;;;23.90;14.65;;;;;;;-1.92;86.49;99894.33;1785720;80;21135;-86
2021/01/13 04:11:22;;;;;;;18.85;12.20;;;;;;;-1.93;86.41;99899.39;1797090;79;21956;-87
2021/01/13 04:13:54;;;;;;;26.77;13.90;;;;;;;-1.97;86.40;99894.48;1795091;80;21148;-87
2021/01/13 04:16:22;;;;;;;53.55;24.18;;;;;;;-1.98;86.43;99903.88;1795388;80;21137;-89
2021/01/13 04:18:51;;;;;;;55.88;27.95;;;;;;;-1.99;86.42;99908.94;1795586;79;21188;-89
2021/01/13 04:21:21;;;;;;;38.80;20.62;;;;;;;-2.05;86.30;99913.32;1795282;80;21550;-87
2021/01/13 04:23:49;;;;;;;48.35;27.65;;;;;;;-2.07;86.40;99920.08;1795393;80;22871;-87
2021/01/13 04:26:16;;;;;;;36.90;21.02;;;;;;;-2.07;86.46;99920.48;1795229;80;21184;-88
2021/01/13 04:28:49;;;;;;;31.02;18.98;;;;;;;-2.09;86.42;99917.80;1795171;80;21163;-88
2021/01/13 04:31:16;;;;;;;17.40;11.20;;;;;;;-2.11;86.42;99920.69;1795235;80;21148;-89
2021/01/13 04:33:44;;;;;;;12.43;8.20;;;;;;;-2.12;86.42;99918.01;1795174;79;21171;-89
2021/01/13 04:36:15;;;;;;;8.70;6.50;;;;;;;-2.11;86.46;99918.52;1795277;80;21836;-89
2021/01/13 04:38:42;;;;;;;8.33;6.50;;;;;;;-2.13;86.40;99917.53;1795477;80;21171;-88
2021/01/13 04:41:12;;;;;;;15.45;8.95;;;;;;;-2.17;86.32;99922.48;1795714;79;21653;-88
2021/01/13 04:44:03;;;;;;;10.80;7.10;;;;;;;-2.21;86.33;99929.95;1795469;79;21257;-87
2021/01/13 04:46:36;;;;;;;9.13;6.30;;;;;;;-2.22;86.45;99926.86;1780911;80;21099;-88
2021/01/13 04:49:19;;;;;;;16.67;8.30;;;;;;;-2.22;86.49;99920.42;1797375;79;21944;-87
2021/01/13 04:51:47;;;;;;;13.70;8.58;;;;;;;-2.23;86.50;99931.14;1780712;80;21204;-88
2021/01/13 04:54:18;;;;;;;11.80;7.25;;;;;;;-2.24;86.54;99941.34;1797443;79;21134;-88
2021/01/13 04:57:17;;;;;;;11.57;6.70;;;;;;;-2.23;86.72;99935.01;1780070;79;21621;-88
2021/01/13 05:00:01;;;;;;;10.25;7.00;;;;;;;-2.19;86.85;99939.55;1796954;79;21169;-90
2021/01/13 05:02:54;;;;;;;14.90;6.87;;;;;;;-2.12;87.04;99948.58;1827506;78;22800;-91
2021/01/13 05:05:21;;;;;;;12.07;7.58;;;;;;;-2.02;87.15;99949.63;1822957;78;21136;-90
2021/01/13 05:08:08;;;;;;;14.35;7.60;;;;;;;-1.87;87.43;99949.68;1846769;77;21328;-88
2021/01/13 05:10:42;;;;;;;8.65;5.85;;;;;;;-1.73;87.53;99949.63;1835432;77;21219;-88
2021/01/13 05:13:17;;;;;;;8.80;4.42;;;;;;;-1.64;87.37;99952.36;1837365;78;21124;-91
2021/01/13 05:15:54;;;;;;;9.08;5.60;;;;;;;-1.60;87.11;99950.86;1856594;77;22806;-89
2021/01/13 05:18:56;;;;;;;8.13;5.43;;;;;;;-1.57;86.87;99945.48;1795520;78;27958;-86
2021/01/13 05:21:27;;;;;;;12.43;5.85;;;;;;;-1.64;86.66;99954.94;1797041;79;21597;-88
2021/01/13 05:23:57;;;;;;;13.22;7.47;;;;;;;-1.64;86.62;99961.80;1796959;79;21892;-89
2021/01/13 05:26:25;;;;;;;14.70;8.33;;;;;;;-1.66;86.58;99964.69;1797314;79;21215;-90
2021/01/13 05:29:32;;;;;;;12.50;7.30;;;;;;;-1.64;86.80;99965.67;1797614;79;21505;-94
2021/01/13 05:32:01;;;;;;;9.15;6.08;;;;;;;-1.58;87.07;99960.50;1797371;79;21519;-89
2021/01/13 05:34:34;;;;;;;8.05;5.53;;;;;;;-1.41;87.31;99971.84;1797343;79;21135;-89
2021/01/13 05:37:16;;;;;;;8.75;5.35;;;;;;;-1.32;87.35;99964.14;1764837;81;21904;-91
2021/01/13 05:39:47;;;;;;;8.93;6.70;;;;;;;-1.27;87.18;99961.44;1789044;80;21147;-91
2021/01/13 05:42:17;;;;;;;8.60;5.55;;;;;;;-1.27;87.01;99966.60;1789151;80;21109;-88
2021/01/13 05:44:44;;;;;;;18.42;10.45;;;;;;;-1.25;87.00;99968.88;1788797;80;21171;-84
2021/01/13 05:47:37;;;;;;;12.30;6.97;;;;;;;-1.20;87.06;99959.72;1788604;80;21128;-85
2021/01/13 05:50:06;;;;;;;10.13;5.35;;;;;;;-1.20;86.91;99956.72;1784950;80;21974;-87
2021/01/13 05:52:35;;;;;;;6.42;4.45;;;;;;;-1.23;86.67;99962.98;1783673;80;21156;-84
2021/01/13 05:55:07;;;;;;;8.05;5.12;;;;;;;-1.30;86.41;99961.24;1788687;80;21180;-83
2021/01/13 05:57:36;;;;;;;17.23;8.58;;;;;;;-1.36;86.33;99968.22;1788374;80;21155;-83
2021/01/13 06:00:05;;;;;;;15.25;6.55;;;;;;;-1.43;86.26;99974.70;1788839;80;21129;-84
2021/01/13 06:02:34;;;;;;;30.57;13.95;;;;;;;-1.50;86.17;99980.31;1788675;80;21833;-84
2021/01/13 06:05:05;;;;;;;19.45;9.53;;;;;;;-1.58;86.16;99982.81;1788467;80;21076;-81
2021/01/13 06:07:32;;;;;;;21.52;11.05;;;;;;;-1.63;86.18;99982.55;1783095;80;21669;-85
2021/01/13 06:10:01;;;;;;;36.23;15.90;;;;;;;-1.68;86.17;99981.77;1787928;80;21203;-83
2021/01/13 06:12:31;;;;;;;32.65;14.78;;;;;;;-1.72;86.23;99983.27;1788696;80;21192;-84
2021/01/13 06:14:59;;;;;;;25.80;11.20;;;;;;;-1.73;86.46;99975.43;1788462;80;21936;-86
2021/01/13 06:17:29;;;;;;;30.97;11.33;;;;;;;-1.70;86.62;99971.76;1784698;80;21168;-82
2021/01/13 06:19:57;;;;;;;24.70;11.68;;;;;;;-1.68;86.71;99963.71;1788478;80;21164;-85
2021/01/13 06:22:32;;;;;;;27.35;9.73;;;;;;;-1.67;86.76;99963.81;1788255;80;21187;-85
2021/01/13 06:25:10;;;;;;;26.02;9.33;;;;;;;-1.56;86.91;99965.72;1888982;76;22669;-85
2021/01/13 06:27:59;;;;;;;25.88;8.50;;;;;;;-1.53;87.00;99968.91;1857528;77;21107;-86
2021/01/13 06:30:39;;;;;;;19.07;7.33;;;;;;;-1.42;87.18;99975.20;1859945;77;21912;-85
2021/01/13 06:33:12;;;;;;;20.17;7.40;;;;;;;-1.28;87.30;99982.88;1859546;77;21142;-85
2021/01/13 06:35:54;;;;;;;20.90;8.13;;;;;;;-1.17;87.25;99994.73;1824601;77;21181;-86
2021/01/13 06:38:31;;;;;;;24.72;9.23;;;;;;;-1.13;87.15;99992.82;1831295;77;21664;-85
2021/01/13 06:41:01;;;;;;;22.00;7.90;;;;;;;-1.10;86.98;100001.17;1852002;77;21110;-86
2021/01/13 06:46:20;;;;;;;24.05;8.40;;;;;;;-1.02;86.99;99998.22;1804730;79;22839;-88
2021/01/13 06:48:54;;;;;;;22.15;9.05;;;;;;;-0.96;87.20;100002.85;1789950;80;21230;-88
2021/01/13 06:51:21;;;;;;;20.35;8.90;;;;;;;-0.84;87.26;100004.88;1757680;80;21888;-89
2021/01/13 06:53:48;;;;;;;22.67;9.93;;;;;;;-0.75;87.26;99998.07;1757563;81;21170;-87
2021/01/13 06:56:16;;;;;;;17.42;8.13;;;;;;;-0.71;87.04;99997.81;1788542;80;21208;-87
2021/01/13 07:01:52;;;;;;;18.40;8.15;;;;;;;-0.80;86.49;100007.24;1810877;78;22806;-88
2021/01/13 07:04:28;;;;;;;17.60;7.35;;;;;;;-0.76;86.78;100016.95;1810882;78;22294;-89
2021/01/13 07:07:05;;;;;;;21.62;7.15;;;;;;;-0.72;86.96;100025.36;1797100;78;21128;-89
2021/01/13 07:09:49;;;;;;;15.53;7.35;;;;;;;-0.56;87.30;100036.20;1764453;79;21969;-89
2021/01/13 07:12:27;;;;;;;13.03;6.35;;;;;;;-0.44;87.25;100041.18;1797044;79;21156;-85
2021/01/13 07:14:58;;;;;;;16.67;6.50;;;;;;;-0.32;87.35;100041.89;1797228;79;21741;-90
2021/01/13 07:17:26;;;;;;;12.93;5.85;;;;;;;-0.20;87.28;100050.33;1763961;79;21203;-84
2021/01/13 07:20:00;;;;;;;14.93;6.10;;;;;;;-0.09;87.22;100049.65;1796914;79;21167;-88
2021/01/13 07:22:27;;;;;;;11.88;6.08;;;;;;;0.03;87.29;100051.14;1796844;79;21897;-88
2021/01/13 07:24:56;;;;;;;11.60;5.90;;;;;;;0.15;87.28;100051.42;1764141;79;21206;-86
2021/01/13 07:27:23;;;;;;;14.18;5.70;;;;;;;0.28;87.30;100053.38;1796894;79;21613;-87
2021/01/13 07:29:51;;;;;;;11.80;5.97;;;;;;;0.40;87.20;100050.17;1796845;79;21309;-86
2021/01/13 07:32:27;;;;;;;13.22;5.83;;;;;;;0.48;87.02;100055.76;1796876;79;21242;-87
2021/01/13 07:34:55;;;;;;;12.73;5.62;;;;;;;0.56;87.00;100050.20;1796251;79;21914;-83
2021/01/13 07:37:24;;;;;;;13.62;5.28;;;;;;;0.66;86.92;100051.98;1738318;79;21199;-83
2021/01/13 07:40:25;;;;;;;9.83;4.30;;;;;;;0.77;86.86;100052.15;1796378;79;21699;-88
2021/01/13 07:43:05;;;;;;;9.83;4.60;;;;;;;0.85;86.83;100057.31;1797022;79;21150;-87
2021/01/13 07:45:46;;;;;;;9.98;4.40;;;;;;;0.94;86.75;100051.73;1797437;79;21199;-88
2021/01/13 07:48:28;;;;;;;8.70;4.60;;;;;;;1.03;86.78;100053.89;1794585;79;22889;-87
2021/01/13 07:51:08;;;;;;;11.20;4.70;;;;;;;1.15;86.78;100053.24;1797226;79;21194;-87
2021/01/13 07:53:39;;;;;;;14.10;4.40;;;;;;;1.22;86.53;100060.53;1797230;79;21147;-89
2021/01/13 07:56:14;;;;;;;10.40;3.77;;;;;;;1.29;86.47;100056.53;1797541;79;21175;-88
2021/01/13 07:58:48;;;;;;;10.13;4.30;;;;;;;1.36;86.44;100056.03;1797348;79;21187;-86
2021/01/13 08:01:35;;;;;;;9.00;3.70;;;;;;;1.45;86.42;100059.50;1795698;79;21837;-87
2021/01/13 08:04:37;;;;;;;8.55;3.45;;;;;;;1.58;86.52;100060.98;1773676;79;21136;-88
2021/01/13 08:07:17;;;;;;;10.03;3.17;;;;;;;1.67;86.42;100059.76;1720716;82;21167;-88
2021/01/13 08:09:51;;;;;;;11.12;3.65;;;;;;;1.74;86.30;100060.52;1735969;82;21616;-94
2021/01/13 08:13:05;;;;;;;12.75;4.55;;;;;;;1.82;86.19;100058.33;1746787;81;21185;-90
2021/01/13 08:16:06;;;;;;;10.53;3.70;;;;;;;1.91;86.21;100052.25;1773999;79;21909;-88
2021/01/13 08:19:18;;;;;;;10.48;4.10;;;;;;;1.96;86.00;100056.80;1763871;81;21598;-91
2021/01/13 08:22:00;;;;;;;13.45;4.40;;;;;;;1.99;85.98;100055.25;1763336;81;21133;-89
2021/01/13 08:24:29;;;;;;;16.05;4.45;;;;;;;2.03;85.84;100054.98;1764559;81;21220;-90
2021/01/13 08:27:00;;;;;;;9.35;4.85;;;;;;;2.03;85.70;100057.17;1734466;81;21115;-87
2021/01/13 08:29:35;;;;;;;12.63;4.85;;;;;;;1.94;85.36;100061.50;1765542;81;21870;-88
2021/01/13 08:32:10;;;;;;;12.68;4.20;;;;;;;1.84;85.18;100064.48;1765610;81;21168;-89
2021/01/13 08:34:49;;;;;;;12.90;5.00;;;;;;;1.73;85.08;100060.47;1765782;81;21076;-92
2021/01/13 08:37:15;;;;;;;12.03;5.00;;;;;;;1.62;85.07;100066.41;1765678;81;21144;-92
2021/01/13 08:39:43;;;;;;;12.25;5.00;;;;;;;1.53;85.02;100062.95;1733528;81;21191;-91
2021/01/13 08:42:29;;;;;;;13.13;5.83;;;;;;;1.48;85.17;100059.25;1765657;81;22847;-90
2021/01/13 08:44:56;;;;;;;14.70;5.58;;;;;;;1.43;85.15;100059.84;1765521;81;21725;-92
2021/01/13 08:47:25;;;;;;;14.05;6.12;;;;;;;1.40;85.27;100060.97;1765427;81;21144;-89
2021/01/13 08:49:52;;;;;;;25.10;9.65;;;;;;;1.37;85.26;100055.23;1765720;81;21155;-89
2021/01/13 08:52:24;;;;;;;51.83;20.85;;;;;;;1.36;85.33;100055.61;1733348;81;21657;-90
2021/01/13 08:55:03;;;;;;;27.20;12.53;;;;;;;1.39;85.42;100060.47;1765567;81;21842;-91
2021/01/13 08:57:55;;;;;;;14.68;7.25;;;;;;;1.41;85.44;100056.25;1765512;81;21581;-89
2021/01/13 09:00:24;;;;;;;21.85;6.50;;;;;;;1.44;85.45;100061.19;1790633;79;21160;-85
2021/01/13 09:03:04;;;;;;;13.32;5.90;;;;;;;1.49;85.57;100062.73;1787952;79;21619;-94
2021/01/13 09:05:39;;;;;;;15.68;5.50;;;;;;;1.53;85.55;100067.25;1758668;80;21251;-86
2021/01/13 09:08:48;;;;;;;16.05;6.65;;;;;;;1.59;85.51;100069.27;1758296;81;21922;-88
2021/01/13 09:11:35;;;;;;;24.45;9.53;;;;;;;1.60;85.44;100069.34;1762127;81;21184;-86
2021/01/13 09:14:20;;;;;;;21.20;8.93;;;;;;;1.62;85.30;100062.94;1737607;81;21166;-88
2021/01/13 09:16:57;;;;;;;15.70;8.90;;;;;;;1.60;85.17;100060.69;1750294;81;21170;-90
2021/01/13 09:19:40;;;;;;;20.85;8.45;;;;;;;1.59;85.18;100058.47;1738282;82;21157;-93
2021/01/13 09:22:10;;;;;;;19.30;7.40;;;;;;;1.59;85.10;100059.77;1738194;82;21907;-88
2021/01/13 09:24:43;;;;;;;14.50;6.65;;;;;;;1.60;85.09;100064.16;1741189;81;21149;-91
2021/01/13 09:27:12;;;;;;;13.75;6.37;;;;;;;1.61;85.10;100062.03;1708774;82;21152;-91
2021/01/13 09:29:52;;;;;;;13.28;7.80;;;;;;;1.62;85.11;100057.34;1717062;82;21136;-91
2021/01/13 09:32:23;;;;;;;33.98;15.08;;;;;;;1.63;85.07;100051.73;1746506;82;21109;-90
2021/01/13 09:34:55;;;;;;;22.75;9.83;;;;;;;1.64;85.01;100059.59;1746705;82;21895;-93
2021/01/13 09:37:24;;;;;;;18.73;9.48;;;;;;;1.63;85.00;100056.92;1746233;82;21149;-92
2021/01/13 09:40:02;;;;;;;27.65;13.25;;;;;;;1.61;84.95;100054.24;1746446;82;21810;-94
2021/01/13 09:42:39;;;;;;;21.30;10.30;;;;;;;1.59;84.96;100059.77;1717519;82;21367;-94
2021/01/13 09:45:08;;;;;;;11.43;5.30;;;;;;;1.57;84.98;100055.33;1746627;82;21145;-92
2021/01/13 09:47:36;;;;;;;13.95;7.10;;;;;;;1.58;85.03;100057.09;1746637;82;21964;-90
2021/01/13 09:50:10;;;;;;;12.45;5.45;;;;;;;1.60;85.07;100068.47;1746300;82;21176;-92
2021/01/13 09:52:43;;;;;;;15.55;7.50;;;;;;;1.60;85.05;100062.86;1746445;81;21132;-92
2021/01/13 09:55:11;;;;;;;;;;;;;;;1.63;85.01;100075.08;1748930;82;21149;-92
2021/01/13 09:57:38;;;;;;;15.40;5.67;;;;;;;1.59;85.00;100074.03;1745460;81;20245;-89
2021/01/13 10:00:11;;;;;;;17.62;7.87;;;;;;;1.63;85.11;100072.48;1745547;81;22846;-90
2021/01/13 10:02:39;;;;;;;13.93;6.15;;;;;;;1.70;85.20;100068.97;1712208;82;21558;-89
2021/01/13 10:05:08;;;;;;;16.42;7.67;;;;;;;1.73;85.13;100071.73;1777800;80;21136;-91
2021/01/13 10:07:35;;;;;;;13.72;6.05;;;;;;;1.78;85.05;100065.87;1781505;80;21184;-90
2021/01/13 10:10:07;;;;;;;14.07;5.45;;;;;;;1.82;85.03;100072.59;1781705;80;21163;-91
2021/01/13 10:12:38;;;;;;;10.23;5.47;;;;;;;1.88;85.01;100065.52;1781811;80;21888;-91
2021/01/13 10:15:10;;;;;;;12.18;5.20;;;;;;;1.93;84.96;100075.69;1781336;80;21128;-91
2021/01/13 10:17:37;;;;;;;14.23;5.97;;;;;;;1.95;84.87;100072.77;1780683;80;21192;-89
2021/01/13 10:20:15;;;;;;;13.28;4.92;;;;;;;1.98;84.85;100071.63;1781413;80;21155;-89
2021/01/13 10:22:44;;;;;;;17.10;5.42;;;;;;;2.00;84.75;100073.88;1781568;80;21179;-93
2021/01/13 10:25:14;;;;;;;15.38;5.55;;;;;;;2.03;84.76;100067.97;1781974;80;21956;-93
2021/01/13 10:27:43;;;;;;;11.40;5.25;;;;;;;2.06;84.75;100071.57;1754576;80;21169;-93
2021/01/13 10:30:11;;;;;;;11.73;5.00;;;;;;;2.09;84.70;100069.14;1781738;80;21153;-94
2021/01/13 10:32:52;;;;;;;11.80;4.95;;;;;;;2.09;84.62;100068.25;1755514;80;21169;-93
2021/01/13 10:35:21;;;;;;;15.45;4.42;;;;;;;2.11;84.70;100067.50;1765490;80;21590;-90
2021/01/13 10:37:55;;;;;;;11.70;4.67;;;;;;;2.14;84.59;100068.08;1703110;82;21885;-88
2021/01/13 10:40:25;;;;;;;11.15;4.42;;;;;;;2.16;84.56;100064.23;1734038;82;21186;-88
2021/01/13 10:42:54;;;;;;;10.15;4.75;;;;;;;2.17;84.52;100057.81;1733739;82;21157;-88
2021/01/13 10:45:22;;;;;;;16.20;4.95;;;;;;;2.25;84.60;100058.17;1733799;82;21242;-87
2021/01/13 10:48:02;;;;;;;12.30;5.20;;;;;;;2.34;84.60;100067.70;1733883;82;21584;-89
2021/01/13 10:50:31;;;;;;;11.08;5.12;;;;;;;2.39;84.57;100061.44;1734113;82;21960;-89
2021/01/13 10:53:00;;;;;;;14.45;4.33;;;;;;;2.44;84.46;100064.73;1733953;82;21704;-90
2021/01/13 10:55:29;;;;;;;9.83;5.25;;;;;;;2.44;84.28;100062.52;1734178;82;21182;-94
2021/01/13 10:57:58;;;;;;;11.35;6.10;;;;;;;2.43;84.20;100060.75;1733980;82;21190;-91
2021/01/13 11:00:28;;;;;;;10.70;4.92;;;;;;;2.42;84.18;100049.88;1733929;82;21154;-94
2021/01/13 11:03:03;;;;;;;14.98;6.10;;;;;;;2.42;84.08;100059.88;1724500;82;21907;-86
2021/01/13 11:05:38;;;;;;;15.32;6.42;;;;;;;2.40;84.11;100058.88;1741398;82;21646;-91
2021/01/13 11:08:06;;;;;;;16.10;6.58;;;;;;;2.42;84.24;100053.38;1698201;84;21109;-89
2021/01/13 11:10:33;;;;;;;12.70;5.87;;;;;;;2.45;84.26;100058.70;1740731;81;21158;-92
2021/01/13 11:13:05;;;;;;;15.90;6.25;;;;;;;2.44;84.12;100058.23;1738200;82;21217;-94
2021/01/13 11:15:32;;;;;;;13.10;6.05;;;;;;;2.42;84.03;100058.58;1751060;81;21836;-91
2021/01/13 11:18:00;;;;;;;13.70;5.47;;;;;;;2.42;84.06;100056.36;1727238;81;21258;-92
2021/01/13 11:20:30;;;;;;;13.58;5.90;;;;;;;2.40;83.99;100054.98;1762641;81;21619;-89
2021/01/13 11:23:01;;;;;;;15.25;6.45;;;;;;;2.39;83.95;100057.13;1759488;81;21730;-91
2021/01/13 11:25:36;;;;;;;20.95;9.20;;;;;;;2.41;84.02;100048.98;1758018;80;21128;-91
2021/01/13 11:28:06;;;;;;;17.95;7.45;;;;;;;2.41;83.92;100049.41;1761298;80;22001;-91
2021/01/13 11:30:39;;;;;;;22.48;9.70;;;;;;;2.42;83.91;100046.89;1741636;81;21174;-91
2021/01/13 11:33:08;;;;;;;27.17;11.85;;;;;;;2.44;84.03;100048.23;1747436;81;21218;-91
2021/01/13 11:35:46;;;;;;;14.60;7.08;;;;;;;2.46;84.05;100047.50;1739722;82;21156;-91
2021/01/13 11:38:49;;;;;;;55.12;23.42;;;;;;;2.56;84.20;100047.92;1739692;82;21183;-92
2021/01/13 11:41:33;;;;;;;36.15;14.03;;;;;;;2.68;84.28;100045.87;1739488;82;21907;-92
2021/01/13 11:44:25;;;;;;;34.70;15.00;;;;;;;2.87;84.28;100053.69;1739675;82;21236;-94
2021/01/13 11:47:10;;;;;;;23.92;11.63;;;;;;;2.99;84.14;100044.66;1740165;82;21149;-92
2021/01/13 11:49:58;;;;;;;17.05;7.37;;;;;;;3.16;84.29;100042.37;1741539;81;21140;-92
2021/01/13 11:52:30;;;;;;;18.35;6.72;;;;;;;3.37;84.20;100042.81;1761966;81;21128;-88
2021/01/13 11:54:57;;;;;;;18.65;8.38;;;;;;;3.60;84.25;100034.66;1728667;83;22859;-91
2021/01/13 11:57:34;;;;;;;17.50;7.37;;;;;;;3.78;84.17;100031.94;1760690;81;21164;-93
2021/01/13 12:00:29;;;;;;;14.13;6.60;;;;;;;3.87;83.74;100021.89;1760966;80;21239;-92
2021/01/13 12:03:00;;;;;;;14.80;6.95;;;;;;;3.91;83.41;100018.58;1760993;80;21567;-91
2021/01/13 12:05:37;;;;;;;15.48;6.80;;;;;;;3.89;82.90;100022.84;1736058;82;21144;-92